createdAt,value
2023-12-09T00:01:26.479Z,-1.01
2023-12-09T00:06:28.256Z,-1.01
2023-12-09T00:11:30.415Z,-1.04
2023-12-09T00:16:32.351Z,-1.02
2023-12-09T00:21:34.220Z,-1.17
2023-12-09T00:26:35.940Z,-1.07
2023-12-09T00:31:37.753Z,-1.07
2023-12-09T00:36:39.822Z,-0.95
2023-12-09T00:41:41.617Z,-1.02
2023-12-09T00:46:43.390Z,-1.29
2023-12-09T00:51:45.316Z,-1.07
2023-12-09T00:56:47.136Z,-0.99
2023-12-09T01:01:48.901Z,-0.96
2023-12-09T01:06:50.744Z,-0.92
2023-12-09T01:11:54.643Z,-0.90
2023-12-09T01:16:56.857Z,-0.94
2023-12-09T01:21:58.666Z,-0.95
2023-12-09T01:27:00.401Z,-1.14
2023-12-09T01:32:02.326Z,-0.96
2023-12-09T01:37:04.158Z,-0.92
2023-12-09T01:42:05.894Z,-0.95
2023-12-09T01:47:08.348Z,-0.86
2023-12-09T01:52:10.151Z,-0.85
2023-12-09T01:57:12.108Z,-0.91
2023-12-09T02:02:13.932Z,-0.90
2023-12-09T02:07:15.749Z,-0.90
2023-12-09T02:12:32.560Z,-0.90
2023-12-09T02:17:41.524Z,-0.91
2023-12-09T02:22:43.282Z,-0.97
2023-12-09T02:27:54.490Z,-0.90
2023-12-09T02:32:58.073Z,-0.86
2023-12-09T02:38:02.598Z,-0.95
2023-12-09T02:43:06.074Z,-1.02
2023-12-09T02:48:08.190Z,-1.07
2023-12-09T02:53:10.211Z,-0.96
2023-12-09T02:58:13.382Z,-1.03
2023-12-09T03:03:15.563Z,-1.04
2023-12-09T03:08:17.362Z,-1.09
2023-12-09T03:13:20.760Z,-1.03
2023-12-09T03:18:22.675Z,-1.01
2023-12-09T03:23:24.688Z,-1.23
2023-12-09T03:28:26.601Z,-0.93
2023-12-09T03:33:28.643Z,-0.93
2023-12-09T03:38:30.838Z,-1.13
2023-12-09T03:43:33.388Z,-1.09
2023-12-09T03:48:35.316Z,-0.97
2023-12-09T03:53:37.721Z,-1.05
2023-12-09T03:58:39.562Z,-1.03
2023-12-09T04:03:41.451Z,-1.10
2023-12-09T04:08:43.532Z,-1.06
2023-12-09T04:13:45.486Z,-0.96
2023-12-09T04:18:48.587Z,-0.98
2023-12-09T04:23:50.537Z,-1.00
2023-12-09T04:28:52.294Z,-1.02
2023-12-09T04:33:54.063Z,-1.10
2023-12-09T04:38:56.113Z,-1.04
2023-12-09T04:43:57.836Z,-1.05
2023-12-09T04:48:59.763Z,-1.07
2023-12-09T04:54:01.517Z,-0.98
2023-12-09T04:59:04.183Z,-1.02
2023-12-09T05:04:06.184Z,-1.07
2023-12-09T05:09:09.575Z,-1.03
2023-12-09T05:14:11.459Z,-0.93
2023-12-09T05:19:13.274Z,-1.12
2023-12-09T05:24:15.265Z,-1.08
2023-12-09T05:29:17.075Z,-0.99
2023-12-09T05:34:19.185Z,-1.01
2023-12-09T05:39:21.672Z,-0.94
2023-12-09T05:44:23.670Z,-0.97
2023-12-09T05:49:26.488Z,-0.89
2023-12-09T05:54:28.231Z,-0.88
2023-12-09T05:59:30.149Z,-0.88
2023-12-09T06:04:32.054Z,-1.06
2023-12-09T06:09:33.981Z,-1.41
2023-12-09T06:14:36.978Z,-1.04
2023-12-09T06:19:39.316Z,-1.06
2023-12-09T06:24:41.175Z,-1.01
2023-12-09T06:29:45.769Z,-0.98
2023-12-09T06:34:47.623Z,-0.95
2023-12-09T06:39:49.522Z,-0.87
2023-12-09T06:44:51.498Z,-0.93
2023-12-09T06:49:53.437Z,-0.94
2023-12-09T06:54:55.675Z,-0.83
2023-12-09T06:59:57.692Z,-0.92
2023-12-09T07:04:59.522Z,-0.86
2023-12-09T07:10:01.429Z,-0.90
2023-12-09T07:15:06.707Z,-0.82
2023-12-09T07:20:08.815Z,-0.83
2023-12-09T07:25:12.977Z,-0.81
2023-12-09T07:30:15.226Z,-0.74
2023-12-09T07:35:18.324Z,-0.76
2023-12-09T07:40:20.355Z,-0.78
2023-12-09T07:45:22.215Z,-0.81
2023-12-09T07:50:24.377Z,-0.74
2023-12-09T07:55:26.213Z,-1.13
2023-12-09T08:00:28.694Z,-1.05
2023-12-09T08:05:30.836Z,-0.74
2023-12-09T08:10:32.714Z,-0.69
2023-12-09T08:15:34.881Z,-0.64
2023-12-09T08:20:37.825Z,-0.56
2023-12-09T08:25:40.081Z,-0.55
2023-12-09T08:30:41.890Z,-0.64
2023-12-09T08:35:43.652Z,-0.64
2023-12-09T08:40:45.541Z,-0.55
2023-12-09T08:45:47.379Z,2.75
2023-12-09T08:50:49.349Z,0.17
2023-12-09T08:55:51.120Z,-0.11
2023-12-09T09:00:53.639Z,0.11
2023-12-09T09:05:56.049Z,-0.12
2023-12-09T09:10:58.236Z,-0.27
2023-12-09T09:16:00.314Z,-0.27
2023-12-09T09:21:02.205Z,-0.25
2023-12-09T09:26:06.251Z,-0.17
2023-12-09T09:31:08.198Z,-0.17
2023-12-09T09:36:10.705Z,0.10
2023-12-09T09:41:37.362Z,-0.07
2023-12-09T09:46:40.305Z,-0.29
2023-12-09T09:51:46.132Z,-0.29
2023-12-09T09:56:50.437Z,-0.37
2023-12-09T10:01:52.889Z,-0.36
2023-12-09T10:06:57.286Z,-0.24
2023-12-09T10:11:59.314Z,-0.26
2023-12-09T10:17:01.517Z,-0.34
2023-12-09T10:22:03.383Z,-0.19
2023-12-09T10:27:05.805Z,-0.23
2023-12-09T10:32:07.856Z,1.75
2023-12-09T10:37:09.902Z,4.34
2023-12-09T10:42:12.379Z,4.51
2023-12-09T10:47:14.562Z,4.34
2023-12-09T10:52:16.452Z,4.52
2023-12-09T10:57:20.054Z,4.55
2023-12-09T11:02:22.700Z,1.70
2023-12-09T11:07:26.210Z,1.21
2023-12-09T11:12:31.266Z,1.05
2023-12-09T11:17:38.664Z,1.01
2023-12-09T11:22:42.441Z,1.01
2023-12-09T11:27:44.495Z,1.32
2023-12-09T11:32:46.757Z,1.28
2023-12-09T11:37:50.494Z,2.06
2023-12-09T11:42:53.304Z,1.74
2023-12-09T11:47:58.210Z,1.33
2023-12-09T11:53:00.309Z,1.08
2023-12-09T11:58:02.366Z,0.84
2023-12-09T12:03:04.826Z,0.59
2023-12-09T12:08:06.872Z,0.57
2023-12-09T12:13:09.294Z,0.90
2023-12-09T12:18:11.249Z,0.66
2023-12-09T12:23:19.947Z,0.64
2023-12-09T12:28:28.580Z,0.49
2023-12-09T12:33:32.547Z,0.55
2023-12-09T12:38:34.909Z,0.48
2023-12-09T12:43:36.986Z,3.64
2023-12-09T12:48:39.397Z,1.23
2023-12-09T12:53:41.428Z,1.02
2023-12-09T12:58:43.278Z,0.92
2023-12-09T13:03:45.331Z,1.01
2023-12-09T13:08:47.278Z,3.27
2023-12-09T13:13:49.251Z,0.75
2023-12-09T13:18:51.386Z,0.50
2023-12-09T13:23:53.417Z,1.13
2023-12-09T13:28:55.439Z,3.06
2023-12-09T13:33:57.459Z,2.63
2023-12-09T13:38:59.361Z,1.72
2023-12-09T13:44:02.241Z,3.83
2023-12-09T13:49:04.188Z,4.28
2023-12-09T13:54:06.119Z,4.23
2023-12-09T13:59:08.010Z,1.29
2023-12-09T14:04:10.514Z,2.05
2023-12-09T14:09:13.761Z,1.89
2023-12-09T14:14:15.810Z,0.82
2023-12-09T14:19:18.702Z,0.62
2023-12-09T14:24:22.388Z,0.52
2023-12-09T14:29:24.247Z,0.49
2023-12-09T14:34:27.233Z,0.42
2023-12-09T14:39:29.988Z,0.28
2023-12-09T14:44:33.006Z,0.38
2023-12-09T14:49:35.142Z,0.29
2023-12-09T14:54:37.042Z,0.25
2023-12-09T14:59:39.834Z,0.86
2023-12-09T15:04:41.549Z,2.21
2023-12-09T15:09:43.692Z,0.35
2023-12-09T15:14:46.003Z,3.63
2023-12-09T15:19:48.474Z,0.69
2023-12-09T15:24:50.514Z,0.59
2023-12-09T15:29:52.408Z,0.45
2023-12-09T15:34:54.395Z,0.37
2023-12-09T15:39:56.299Z,0.30
2023-12-09T15:44:58.278Z,0.64
2023-12-09T15:50:00.501Z,2.95
2023-12-09T15:55:02.257Z,0.29
2023-12-09T16:00:05.356Z,0.38
2023-12-09T16:05:07.608Z,0.02
2023-12-09T16:10:10.125Z,-0.11
2023-12-09T16:15:12.935Z,-0.06
2023-12-09T16:20:15.845Z,0.38
2023-12-09T16:25:17.835Z,-0.17
2023-12-09T16:30:19.743Z,0.02
2023-12-09T16:35:21.719Z,-0.22
2023-12-09T16:40:24.988Z,0.14
2023-12-09T16:45:27.073Z,3.84
2023-12-09T16:50:29.429Z,3.94
2023-12-09T16:55:31.252Z,3.50
2023-12-09T17:00:35.605Z,3.87
2023-12-09T17:05:37.729Z,3.38
2023-12-09T17:10:39.765Z,0.60
2023-12-09T17:15:41.784Z,3.54
2023-12-09T17:20:43.752Z,1.14
2023-12-09T17:25:45.544Z,1.09
2023-12-09T17:30:48.979Z,0.52
2023-12-09T17:35:50.814Z,0.24
2023-12-09T17:40:52.600Z,3.13
2023-12-09T17:45:55.734Z,3.83
2023-12-09T17:50:57.783Z,4.03
2023-12-09T17:55:59.634Z,3.93
2023-12-09T18:01:01.767Z,1.82
2023-12-09T18:06:04.819Z,3.27
2023-12-09T18:11:07.010Z,1.28
2023-12-09T18:16:11.594Z,1.11
2023-12-09T18:21:13.334Z,0.96
2023-12-09T18:26:15.498Z,0.92
2023-12-09T18:31:17.689Z,0.64
2023-12-09T18:36:19.552Z,0.68
2023-12-09T18:41:21.382Z,2.25
2023-12-09T18:46:25.442Z,2.60
2023-12-09T18:51:27.236Z,0.88
2023-12-09T18:56:29.133Z,0.91
2023-12-09T19:01:31.745Z,0.64
2023-12-09T19:06:42.228Z,0.66
2023-12-09T19:11:51.355Z,-0.07
2023-12-09T19:16:55.243Z,0.14
2023-12-09T19:21:57.076Z,0.14
2023-12-09T19:26:59.450Z,0.11
2023-12-09T19:32:01.469Z,0.15
2023-12-09T19:37:04.215Z,0.36
2023-12-09T19:42:06.492Z,0.23
2023-12-09T19:47:08.353Z,0.24
2023-12-09T19:52:10.156Z,0.29
2023-12-09T19:57:12.010Z,0.21
2023-12-09T20:02:14.777Z,0.24
2023-12-09T20:07:17.415Z,0.34
2023-12-09T20:12:20.117Z,-0.04
2023-12-09T20:17:22.205Z,0.30
2023-12-09T20:22:24.081Z,0.30
2023-12-09T20:27:25.834Z,0.36
2023-12-09T20:32:28.074Z,0.35
2023-12-09T20:37:30.209Z,0.32
2023-12-09T20:42:32.517Z,0.29
2023-12-09T20:47:35.569Z,0.10
2023-12-09T20:52:39.030Z,0.18
2023-12-09T20:57:42.127Z,0.12
2023-12-09T21:02:44.441Z,0.03
2023-12-09T21:07:46.553Z,0.20
2023-12-09T21:12:48.864Z,0.27
2023-12-09T21:17:50.660Z,0.31
2023-12-09T21:22:52.602Z,0.17
2023-12-09T21:27:54.438Z,0.19
2023-12-09T21:32:56.531Z,0.25
2023-12-09T21:37:58.332Z,0.23
2023-12-09T21:43:00.388Z,0.11
2023-12-09T21:48:04.985Z,0.22
2023-12-09T21:53:08.898Z,0.21
2023-12-09T21:58:11.506Z,0.30
2023-12-09T22:03:13.419Z,0.17
2023-12-09T22:08:15.327Z,0.29
2023-12-09T22:13:16.980Z,0.09
2023-12-09T22:18:19.862Z,0.14
2023-12-09T22:23:21.713Z,0.22
2023-12-09T22:28:23.466Z,-0.03
2023-12-09T22:33:26.176Z,0.09
2023-12-09T22:38:28.354Z,0.07
2023-12-09T22:43:30.287Z,0.08
2023-12-09T22:48:32.195Z,0.10
2023-12-09T22:53:34.708Z,0.18
2023-12-09T22:58:36.811Z,0.12
2023-12-09T23:03:38.634Z,-0.21
2023-12-09T23:08:40.836Z,0.02
2023-12-09T23:13:43.961Z,0.06
2023-12-09T23:18:46.151Z,-0.04
2023-12-09T23:23:48.211Z,0.17
2023-12-09T23:28:50.150Z,-0.05
2023-12-09T23:33:51.995Z,0.13
2023-12-09T23:38:54.231Z,0.18
2023-12-09T23:43:55.995Z,0.16
2023-12-09T23:48:58.073Z,0.19
2023-12-09T23:53:59.821Z,0.16
2023-12-09T23:59:01.771Z,0.26
